sensor_id;sensor_type;location;lat;lon;timestamp;pressure;altitude;pressure_sealevel;temperature;humidity
56400;BME280;42298;53.638;9.876;2023-04-27T00:01:43;101676.66;;;6.98;62.85
56400;BME280;42298;53.638;9.876;2023-04-27T00:04:08;101659.31;;;6.87;63.06
56400;BME280;42298;53.638;9.876;2023-04-27T00:06:33;101672.28;;;6.97;62.77
56400;BME280;42298;53.638;9.876;2023-04-27T00:08:59;101677.75;;;6.97;62.95
56400;BME280;42298;53.638;9.876;2023-04-27T00:11:24;101673.06;;;6.92;63.09
56400;BME280;42298;53.638;9.876;2023-04-27T00:13:50;101670.06;;;6.94;62.88
56400;BME280;42298;53.638;9.876;2023-04-27T00:16:15;101671.13;;;6.88;63.34
56400;BME280;42298;53.638;9.876;2023-04-27T00:18:41;101674.44;;;6.90;63.36
56400;BME280;42298;53.638;9.876;2023-04-27T00:21:07;101660.94;;;6.83;62.99
56400;BME280;42298;53.638;9.876;2023-04-27T00:23:33;101661.22;;;6.82;63.33
56400;BME280;42298;53.638;9.876;2023-04-27T00:25:58;101674.38;;;6.85;63.53
56400;BME280;42298;53.638;9.876;2023-04-27T00:28:25;101668.84;;;6.80;63.76
56400;BME280;42298;53.638;9.876;2023-04-27T00:30:50;101669.94;;;6.79;62.52
56400;BME280;42298;53.638;9.876;2023-04-27T00:33:19;101666.63;;;6.72;62.72
56400;BME280;42298;53.638;9.876;2023-04-27T00:35:44;101669.03;;;6.68;62.43
56400;BME280;42298;53.638;9.876;2023-04-27T00:38:10;101634.38;;;6.47;63.09
56400;BME280;42298;53.638;9.876;2023-04-27T00:40:36;101663.22;;;6.60;63.19
56400;BME280;42298;53.638;9.876;2023-04-27T00:43:01;101676.94;;;6.65;63.30
56400;BME280;42298;53.638;9.876;2023-04-27T00:45:26;101676.41;;;6.63;62.77
56400;BME280;42298;53.638;9.876;2023-04-27T00:47:52;101672.88;;;6.67;63.62
56400;BME280;42298;53.638;9.876;2023-04-27T00:50:26;101678.09;;;6.74;63.97
56400;BME280;42298;53.638;9.876;2023-04-27T00:52:52;101679.22;;;6.73;64.20
56400;BME280;42298;53.638;9.876;2023-04-27T00:55:17;101685.53;;;6.73;64.01
56400;BME280;42298;53.638;9.876;2023-04-27T00:57:43;101680.31;;;6.72;63.09
56400;BME280;42298;53.638;9.876;2023-04-27T01:00:09;101683.84;;;6.72;62.14
56400;BME280;42298;53.638;9.876;2023-04-27T01:02:35;101679.66;;;6.60;61.83
56400;BME280;42298;53.638;9.876;2023-04-27T01:05:01;101684.50;;;6.53;61.91
56400;BME280;42298;53.638;9.876;2023-04-27T01:07:29;101680.63;;;6.49;61.61
56400;BME280;42298;53.638;9.876;2023-04-27T01:09:54;101684.75;;;6.51;61.48
56400;BME280;42298;53.638;9.876;2023-04-27T01:12:20;101681.41;;;6.44;61.28
56400;BME280;42298;53.638;9.876;2023-04-27T01:14:47;101676.16;;;6.38;61.43
56400;BME280;42298;53.638;9.876;2023-04-27T01:17:12;101690.91;;;6.37;63.12
56400;BME280;42298;53.638;9.876;2023-04-27T01:19:38;101691.19;;;6.35;62.96
56400;BME280;42298;53.638;9.876;2023-04-27T01:22:04;101690.59;;;6.33;61.89
56400;BME280;42298;53.638;9.876;2023-04-27T01:24:31;101702.28;;;6.24;62.04
56400;BME280;42298;53.638;9.876;2023-04-27T01:26:56;101706.06;;;6.18;62.62
56400;BME280;42298;53.638;9.876;2023-04-27T01:29:21;101698.53;;;6.08;63.11
56400;BME280;42298;53.638;9.876;2023-04-27T01:31:46;101694.94;;;6.03;63.70
56400;BME280;42298;53.638;9.876;2023-04-27T01:34:12;101700.47;;;6.08;63.67
56400;BME280;42298;53.638;9.876;2023-04-27T01:36:38;101703.22;;;6.08;63.72
56400;BME280;42298;53.638;9.876;2023-04-27T01:39:04;101703.75;;;6.10;64.71
56400;BME280;42298;53.638;9.876;2023-04-27T01:41:33;101715.88;;;6.14;64.40
56400;BME280;42298;53.638;9.876;2023-04-27T01:43:58;101709.03;;;6.16;63.94
56400;BME280;42298;53.638;9.876;2023-04-27T01:46:25;101714.44;;;6.11;63.56
56400;BME280;42298;53.638;9.876;2023-04-27T01:48:50;101718.84;;;6.12;63.48
56400;BME280;42298;53.638;9.876;2023-04-27T01:51:16;101732.56;;;6.17;63.32
56400;BME280;42298;53.638;9.876;2023-04-27T01:53:41;101726.81;;;6.14;63.65
56400;BME280;42298;53.638;9.876;2023-04-27T01:56:07;101740.56;;;6.24;63.61
56400;BME280;42298;53.638;9.876;2023-04-27T01:58:32;101743.09;;;6.30;64.58
56400;BME280;42298;53.638;9.876;2023-04-27T02:00:58;101752.19;;;6.36;64.66
56400;BME280;42298;53.638;9.876;2023-04-27T02:03:23;101751.19;;;6.42;65.13
56400;BME280;42298;53.638;9.876;2023-04-27T02:05:50;101751.25;;;6.52;64.90
56400;BME280;42298;53.638;9.876;2023-04-27T02:08:15;101746.66;;;6.57;64.63
56400;BME280;42298;53.638;9.876;2023-04-27T02:10:40;101746.66;;;6.57;64.83
56400;BME280;42298;53.638;9.876;2023-04-27T02:13:06;101724.69;;;6.47;65.42
56400;BME280;42298;53.638;9.876;2023-04-27T02:15:31;101732.97;;;6.57;65.95
56400;BME280;42298;53.638;9.876;2023-04-27T02:17:56;101748.22;;;6.75;65.71
56400;BME280;42298;53.638;9.876;2023-04-27T02:20:22;101739.56;;;6.88;65.18
56400;BME280;42298;53.638;9.876;2023-04-27T02:22:48;101744.00;;;6.94;65.13
56400;BME280;42298;53.638;9.876;2023-04-27T02:25:14;101703.31;;;6.76;65.27
56400;BME280;42298;53.638;9.876;2023-04-27T02:27:40;101738.84;;;7.02;65.51
56400;BME280;42298;53.638;9.876;2023-04-27T02:30:07;101737.00;;;7.08;65.21
56400;BME280;42298;53.638;9.876;2023-04-27T02:32:33;101737.06;;;7.18;64.48
56400;BME280;42298;53.638;9.876;2023-04-27T02:34:58;101725.00;;;7.19;64.07
56400;BME280;42298;53.638;9.876;2023-04-27T02:37:24;101733.81;;;7.26;64.09
56400;BME280;42298;53.638;9.876;2023-04-27T02:39:49;101739.06;;;7.32;64.01
56400;BME280;42298;53.638;9.876;2023-04-27T02:42:14;101745.34;;;7.28;64.00
56400;BME280;42298;53.638;9.876;2023-04-27T02:44:40;101733.81;;;7.26;63.33
56400;BME280;42298;53.638;9.876;2023-04-27T02:47:05;101735.50;;;7.32;63.27
56400;BME280;42298;53.638;9.876;2023-04-27T02:49:31;101733.81;;;7.26;63.76
56400;BME280;42298;53.638;9.876;2023-04-27T02:51:56;101737.59;;;7.20;62.95
56400;BME280;42298;53.638;9.876;2023-04-27T02:54:21;101716.09;;;6.97;63.95
56400;BME280;42298;53.638;9.876;2023-04-27T02:56:47;101720.47;;;6.98;63.87
56400;BME280;42298;53.638;9.876;2023-04-27T02:59:12;101738.31;;;7.00;64.33
56400;BME280;42298;53.638;9.876;2023-04-27T03:01:38;101739.00;;;6.86;65.02
56400;BME280;42298;53.638;9.876;2023-04-27T03:04:03;101737.34;;;6.85;65.06
56400;BME280;42298;53.638;9.876;2023-04-27T03:06:28;101742.25;;;6.83;64.08
56400;BME280;42298;53.638;9.876;2023-04-27T03:08:55;101741.69;;;6.81;64.29
56400;BME280;42298;53.638;9.876;2023-04-27T03:11:20;101743.28;;;6.77;64.24
56400;BME280;42298;53.638;9.876;2023-04-27T03:13:46;101737.28;;;6.80;64.74
56400;BME280;42298;53.638;9.876;2023-04-27T03:16:11;101732.00;;;6.68;63.22
56400;BME280;42298;53.638;9.876;2023-04-27T03:18:37;101736.91;;;6.66;63.78
56400;BME280;42298;53.638;9.876;2023-04-27T03:21:10;101742.38;;;6.66;64.36
56400;BME280;42298;53.638;9.876;2023-04-27T03:23:36;101742.84;;;6.58;63.06
56400;BME280;42298;53.638;9.876;2023-04-27T03:26:08;101734.78;;;6.47;63.33
56400;BME280;42298;53.638;9.876;2023-04-27T03:28:34;101735.53;;;6.37;63.73
56400;BME280;42298;53.638;9.876;2023-04-27T03:31:03;101747.91;;;6.45;63.01
56400;BME280;42298;53.638;9.876;2023-04-27T03:33:29;101746.72;;;6.36;64.16
56400;BME280;42298;53.638;9.876;2023-04-27T03:35:55;101741.44;;;6.29;63.79
56400;BME280;42298;53.638;9.876;2023-04-27T03:38:22;101736.13;;;6.18;63.09
56400;BME280;42298;53.638;9.876;2023-04-27T03:40:47;101742.16;;;6.20;64.02
56400;BME280;42298;53.638;9.876;2023-04-27T03:43:13;101755.81;;;6.20;64.23
56400;BME280;42298;53.638;9.876;2023-04-27T03:45:38;101744.34;;;6.18;64.52
56400;BME280;42298;53.638;9.876;2023-04-27T03:48:04;101738.75;;;6.08;64.93
56400;BME280;42298;53.638;9.876;2023-04-27T03:50:30;101748.34;;;6.10;65.06
56400;BME280;42298;53.638;9.876;2023-04-27T03:52:55;101743.84;;;5.99;65.71
56400;BME280;42298;53.638;9.876;2023-04-27T03:55:21;101741.69;;;6.01;65.38
56400;BME280;42298;53.638;9.876;2023-04-27T03:57:46;101730.13;;;5.94;65.35
56400;BME280;42298;53.638;9.876;2023-04-27T04:00:12;101756.75;;;6.04;65.88
56400;BME280;42298;53.638;9.876;2023-04-27T04:02:38;101763.41;;;6.13;65.64
56400;BME280;42298;53.638;9.876;2023-04-27T04:05:04;101761.28;;;6.20;65.68
56400;BME280;42298;53.638;9.876;2023-04-27T04:07:29;101754.75;;;6.21;64.57
56400;BME280;42298;53.638;9.876;2023-04-27T04:09:55;101750.44;;;6.25;64.25
56400;BME280;42298;53.638;9.876;2023-04-27T04:12:20;101763.06;;;6.31;64.30
56400;BME280;42298;53.638;9.876;2023-04-27T04:14:45;101757.09;;;6.34;64.89
56400;BME280;42298;53.638;9.876;2023-04-27T04:17:13;101772.03;;;6.48;65.48
56400;BME280;42298;53.638;9.876;2023-04-27T04:19:38;101777.34;;;6.59;65.40
56400;BME280;42298;53.638;9.876;2023-04-27T04:22:04;101776.13;;;6.72;65.35
56400;BME280;42298;53.638;9.876;2023-04-27T04:24:29;101784.41;;;6.82;65.00
56400;BME280;42298;53.638;9.876;2023-04-27T04:26:55;101777.94;;;6.93;64.69
56400;BME280;42298;53.638;9.876;2023-04-27T04:29:21;101770.59;;;6.98;64.62
56400;BME280;42298;53.638;9.876;2023-04-27T04:31:46;101772.59;;;7.08;64.16
56400;BME280;42298;53.638;9.876;2023-04-27T04:34:11;101780.84;;;7.13;64.67
56400;BME280;42298;53.638;9.876;2023-04-27T04:36:38;101780.06;;;7.17;63.38
56400;BME280;42298;53.638;9.876;2023-04-27T04:39:04;101789.97;;;7.23;63.52
56400;BME280;42298;53.638;9.876;2023-04-27T04:41:30;101791.13;;;7.32;63.29
56400;BME280;42298;53.638;9.876;2023-04-27T04:43:56;101783.97;;;7.26;63.94
56400;BME280;42298;53.638;9.876;2023-04-27T04:46:23;101770.31;;;7.31;63.95
56400;BME280;42298;53.638;9.876;2023-04-27T04:48:49;101783.56;;;7.44;63.39
56400;BME280;42298;53.638;9.876;2023-04-27T04:51:16;101778.91;;;7.45;64.16
56400;BME280;42298;53.638;9.876;2023-04-27T04:53:41;101787.81;;;7.67;63.71
56400;BME280;42298;53.638;9.876;2023-04-27T04:56:09;101788.38;;;7.69;64.13
56400;BME280;42298;53.638;9.876;2023-04-27T04:58:35;101787.78;;;7.62;64.04
56400;BME280;42298;53.638;9.876;2023-04-27T05:01:00;101796.56;;;7.64;63.98
56400;BME280;42298;53.638;9.876;2023-04-27T05:03:26;101779.53;;;7.57;64.02
56400;BME280;42298;53.638;9.876;2023-04-27T05:05:51;101804.31;;;7.72;64.06
56400;BME280;42298;53.638;9.876;2023-04-27T05:08:16;101791.97;;;7.74;64.03
56400;BME280;42298;53.638;9.876;2023-04-27T05:10:48;101804.53;;;8.17;63.66
56400;BME280;42298;53.638;9.876;2023-04-27T05:13:13;101800.56;;;8.55;63.22
56400;BME280;42298;53.638;9.876;2023-04-27T05:15:38;101797.91;;;9.15;62.29
56400;BME280;42298;53.638;9.876;2023-04-27T05:18:03;101795.88;;;9.96;60.02
56400;BME280;42298;53.638;9.876;2023-04-27T05:20:29;101806.34;;;10.62;57.84
56400;BME280;42298;53.638;9.876;2023-04-27T05:22:57;101792.81;;;11.38;57.29
56400;BME280;42298;53.638;9.876;2023-04-27T05:25:23;101810.06;;;12.11;55.05
56400;BME280;42298;53.638;9.876;2023-04-27T05:27:48;101791.88;;;12.47;52.56
56400;BME280;42298;53.638;9.876;2023-04-27T05:30:13;101795.84;;;13.01;52.51
56400;BME280;42298;53.638;9.876;2023-04-27T05:32:39;101775.03;;;13.04;51.19
56400;BME280;42298;53.638;9.876;2023-04-27T05:35:04;101794.59;;;13.58;50.59
56400;BME280;42298;53.638;9.876;2023-04-27T05:37:29;101791.97;;;13.94;49.16
56400;BME280;42298;53.638;9.876;2023-04-27T05:39:55;101780.41;;;14.19;48.57
56400;BME280;42298;53.638;9.876;2023-04-27T05:42:20;101774.41;;;14.52;49.51
56400;BME280;42298;53.638;9.876;2023-04-27T05:44:45;101787.88;;;15.16;47.55
56400;BME280;42298;53.638;9.876;2023-04-27T05:47:11;101801.59;;;15.57;45.28
56400;BME280;42298;53.638;9.876;2023-04-27T05:49:36;101786.94;;;15.43;44.76
56400;BME280;42298;53.638;9.876;2023-04-27T05:52:01;101806.50;;;15.60;45.90
56400;BME280;42298;53.638;9.876;2023-04-27T05:54:27;101809.88;;;15.79;44.75
56400;BME280;42298;53.638;9.876;2023-04-27T05:56:52;101816.81;;;15.90;44.88
56400;BME280;42298;53.638;9.876;2023-04-27T05:59:17;101816.50;;;15.92;44.64
56400;BME280;42298;53.638;9.876;2023-04-27T06:01:43;101807.69;;;15.98;44.53
56400;BME280;42298;53.638;9.876;2023-04-27T06:04:14;101808.94;;;16.23;43.87
56400;BME280;42298;53.638;9.876;2023-04-27T06:06:40;101793.41;;;16.30;43.99
56400;BME280;42298;53.638;9.876;2023-04-27T06:09:05;101809.06;;;16.57;43.49
56400;BME280;42298;53.638;9.876;2023-04-27T06:11:30;101813.69;;;16.78;43.63
56400;BME280;42298;53.638;9.876;2023-04-27T06:13:56;101815.34;;;16.88;42.85
56400;BME280;42298;53.638;9.876;2023-04-27T06:16:21;101814.84;;;16.77;42.64
56400;BME280;42298;53.638;9.876;2023-04-27T06:18:49;101801.09;;;16.89;41.81
56400;BME280;42298;53.638;9.876;2023-04-27T06:21:14;101803.84;;;16.64;41.87
56400;BME280;42298;53.638;9.876;2023-04-27T06:23:40;101812.38;;;16.76;42.71
56400;BME280;42298;53.638;9.876;2023-04-27T06:26:05;101826.63;;;16.91;41.56
56400;BME280;42298;53.638;9.876;2023-04-27T06:28:31;101828.94;;;16.89;41.99
56400;BME280;42298;53.638;9.876;2023-04-27T06:30:56;101821.25;;;17.21;41.74
56400;BME280;42298;53.638;9.876;2023-04-27T06:33:21;101802.06;;;17.28;40.77
56400;BME280;42298;53.638;9.876;2023-04-27T06:35:46;101800.59;;;17.47;40.99
56400;BME280;42298;53.638;9.876;2023-04-27T06:38:12;101788.97;;;17.28;40.99
56400;BME280;42298;53.638;9.876;2023-04-27T06:40:37;101784.56;;;16.93;39.95
56400;BME280;42298;53.638;9.876;2023-04-27T06:43:02;101780.81;;;16.80;41.68
56400;BME280;42298;53.638;9.876;2023-04-27T06:45:28;101788.50;;;17.09;41.86
56400;BME280;42298;53.638;9.876;2023-04-27T06:47:53;101798.44;;;17.53;40.71
56400;BME280;42298;53.638;9.876;2023-04-27T06:50:19;101785.50;;;17.57;40.21
56400;BME280;42298;53.638;9.876;2023-04-27T06:52:44;101776.63;;;17.72;40.07
56400;BME280;42298;53.638;9.876;2023-04-27T06:55:10;101789.16;;;17.06;40.54
56400;BME280;42298;53.638;9.876;2023-04-27T06:57:36;101804.34;;;16.91;41.02
56400;BME280;42298;53.638;9.876;2023-04-27T07:00:02;101808.28;;;16.99;41.70
56400;BME280;42298;53.638;9.876;2023-04-27T07:02:29;101802.09;;;17.19;40.66
56400;BME280;42298;53.638;9.876;2023-04-27T07:04:54;101834.00;;;17.64;40.33
56400;BME280;42298;53.638;9.876;2023-04-27T07:07:20;101812.19;;;17.75;39.80
56400;BME280;42298;53.638;9.876;2023-04-27T07:09:45;101803.03;;;18.12;39.83
56400;BME280;42298;53.638;9.876;2023-04-27T07:12:10;101834.88;;;18.48;38.50
56400;BME280;42298;53.638;9.876;2023-04-27T07:14:36;101816.06;;;18.66;38.09
56400;BME280;42298;53.638;9.876;2023-04-27T07:17:01;101825.41;;;18.90;37.90
56400;BME280;42298;53.638;9.876;2023-04-27T07:19:26;101817.72;;;18.87;38.63
56400;BME280;42298;53.638;9.876;2023-04-27T07:21:51;101828.34;;;18.94;38.13
56400;BME280;42298;53.638;9.876;2023-04-27T07:24:17;101861.34;;;18.42;38.84
56400;BME280;42298;53.638;9.876;2023-04-27T07:26:42;101860.38;;;17.84;38.78
56400;BME280;42298;53.638;9.876;2023-04-27T07:29:08;101843.34;;;17.00;40.17
56400;BME280;42298;53.638;9.876;2023-04-27T07:31:34;101842.66;;;16.94;40.66
56400;BME280;42298;53.638;9.876;2023-04-27T07:33:59;101855.13;;;16.97;40.51
56400;BME280;42298;53.638;9.876;2023-04-27T07:36:25;101860.06;;;16.44;41.83
56400;BME280;42298;53.638;9.876;2023-04-27T07:38:51;101857.88;;;16.02;41.82
56400;BME280;42298;53.638;9.876;2023-04-27T07:41:17;101853.59;;;15.65;42.25
56400;BME280;42298;53.638;9.876;2023-04-27T07:43:44;101829.34;;;15.57;42.94
56400;BME280;42298;53.638;9.876;2023-04-27T07:46:10;101826.19;;;16.03;42.50
56400;BME280;42298;53.638;9.876;2023-04-27T07:48:36;101831.47;;;16.60;41.44
56400;BME280;42298;53.638;9.876;2023-04-27T07:51:01;101865.47;;;17.13;40.89
56400;BME280;42298;53.638;9.876;2023-04-27T07:53:26;101842.00;;;16.80;39.70
56400;BME280;42298;53.638;9.876;2023-04-27T07:55:52;101847.28;;;17.25;40.86
56400;BME280;42298;53.638;9.876;2023-04-27T07:58:17;101841.84;;;17.71;39.27
56400;BME280;42298;53.638;9.876;2023-04-27T08:00:44;101853.19;;;18.20;39.32
56400;BME280;42298;53.638;9.876;2023-04-27T08:03:09;101846.41;;;17.92;38.75
56400;BME280;42298;53.638;9.876;2023-04-27T08:05:35;101849.69;;;17.86;38.95
56400;BME280;42298;53.638;9.876;2023-04-27T08:08:00;101863.81;;;17.64;39.08
56400;BME280;42298;53.638;9.876;2023-04-27T08:10:25;101811.44;;;17.06;39.68
56400;BME280;42298;53.638;9.876;2023-04-27T08:12:51;101835.94;;;16.87;40.11
56400;BME280;42298;53.638;9.876;2023-04-27T08:15:17;101821.38;;;16.73;40.18
56400;BME280;42298;53.638;9.876;2023-04-27T08:17:44;101818.22;;;16.57;38.98
56400;BME280;42298;53.638;9.876;2023-04-27T08:20:09;101830.31;;;16.53;40.48
56400;BME280;42298;53.638;9.876;2023-04-27T08:22:38;101823.41;;;16.42;38.95
56400;BME280;42298;53.638;9.876;2023-04-27T08:25:05;101834.81;;;16.32;39.17
56400;BME280;42298;53.638;9.876;2023-04-27T08:27:31;101831.78;;;16.11;40.06
56400;BME280;42298;53.638;9.876;2023-04-27T08:29:57;101840.13;;;16.11;40.06
56400;BME280;42298;53.638;9.876;2023-04-27T08:32:25;101810.38;;;15.81;40.01
56400;BME280;42298;53.638;9.876;2023-04-27T08:34:50;101828.38;;;16.14;42.03
56400;BME280;42298;53.638;9.876;2023-04-27T08:37:16;101819.28;;;16.00;39.79
56400;BME280;42298;53.638;9.876;2023-04-27T08:39:42;101839.53;;;15.92;40.59
56400;BME280;42298;53.638;9.876;2023-04-27T08:42:11;101845.31;;;15.74;40.32
56400;BME280;42298;53.638;9.876;2023-04-27T08:44:41;101823.34;;;15.64;40.35
56400;BME280;42298;53.638;9.876;2023-04-27T08:47:08;101824.06;;;15.78;40.56
56400;BME280;42298;53.638;9.876;2023-04-27T08:49:34;101822.16;;;16.17;40.36
56400;BME280;42298;53.638;9.876;2023-04-27T08:52:02;101821.88;;;16.27;38.63
56400;BME280;42298;53.638;9.876;2023-04-27T08:54:27;101808.41;;;16.12;37.94
56400;BME280;42298;53.638;9.876;2023-04-27T08:56:53;101803.38;;;16.23;38.96
56400;BME280;42298;53.638;9.876;2023-04-27T08:59:18;101804.69;;;16.81;37.02
56400;BME280;42298;53.638;9.876;2023-04-27T09:01:47;101821.25;;;17.46;36.99
56400;BME280;42298;53.638;9.876;2023-04-27T09:04:14;101820.09;;;18.10;35.93
56400;BME280;42298;53.638;9.876;2023-04-27T09:06:40;101792.09;;;17.98;36.47
56400;BME280;42298;53.638;9.876;2023-04-27T09:09:05;101828.84;;;17.92;36.41
56400;BME280;42298;53.638;9.876;2023-04-27T09:11:36;101829.56;;;17.72;37.17
56400;BME280;42298;53.638;9.876;2023-04-27T09:14:14;101832.63;;;17.96;37.52
56400;BME280;42298;53.638;9.876;2023-04-27T09:16:39;101796.03;;;18.35;36.38
56400;BME280;42298;53.638;9.876;2023-04-27T09:19:05;101808.31;;;18.92;35.07
56400;BME280;42298;53.638;9.876;2023-04-27T09:21:30;101814.88;;;18.96;35.16
56400;BME280;42298;53.638;9.876;2023-04-27T09:23:57;101809.13;;;18.92;35.09
56400;BME280;42298;53.638;9.876;2023-04-27T09:26:24;101821.66;;;19.07;34.72
56400;BME280;42298;53.638;9.876;2023-04-27T09:28:53;101825.28;;;18.87;34.50
56400;BME280;42298;53.638;9.876;2023-04-27T09:31:21;101831.50;;;18.63;34.20
56400;BME280;42298;53.638;9.876;2023-04-27T09:33:53;101840.09;;;18.50;34.90
56400;BME280;42298;53.638;9.876;2023-04-27T09:36:21;101795.72;;;17.99;33.63
56400;BME280;42298;53.638;9.876;2023-04-27T09:38:46;101803.81;;;18.21;34.30
56400;BME280;42298;53.638;9.876;2023-04-27T09:41:12;101812.94;;;18.38;32.88
56400;BME280;42298;53.638;9.876;2023-04-27T09:43:38;101797.06;;;18.30;32.75
56400;BME280;42298;53.638;9.876;2023-04-27T09:46:08;101814.22;;;18.03;34.00
56400;BME280;42298;53.638;9.876;2023-04-27T09:48:33;101817.56;;;17.80;34.47
56400;BME280;42298;53.638;9.876;2023-04-27T09:50:58;101810.09;;;17.55;35.17
56400;BME280;42298;53.638;9.876;2023-04-27T09:53:32;101793.25;;;17.00;32.87
56400;BME280;42298;53.638;9.876;2023-04-27T09:56:24;101824.19;;;17.33;33.42
56400;BME280;42298;53.638;9.876;2023-04-27T10:01:57;101816.94;;;18.58;32.47
56400;BME280;42298;53.638;9.876;2023-04-27T10:07:15;101816.09;;;19.07;31.85
56400;BME280;42298;53.638;9.876;2023-04-27T10:09:46;101790.53;;;18.76;31.33
56400;BME280;42298;53.638;9.876;2023-04-27T10:12:32;101825.22;;;19.16;30.73
56400;BME280;42298;53.638;9.876;2023-04-27T10:14:59;101806.81;;;19.15;30.16
56400;BME280;42298;53.638;9.876;2023-04-27T10:17:32;101805.41;;;19.09;31.46
56400;BME280;42298;53.638;9.876;2023-04-27T10:22:22;101822.00;;;18.56;33.08
56400;BME280;42298;53.638;9.876;2023-04-27T10:24:49;101803.09;;;18.41;34.13
56400;BME280;42298;53.638;9.876;2023-04-27T10:27:17;101822.25;;;18.71;33.33
56400;BME280;42298;53.638;9.876;2023-04-27T10:29:45;101793.72;;;18.45;33.90
56400;BME280;42298;53.638;9.876;2023-04-27T10:32:25;101834.44;;;18.67;33.66
56400;BME280;42298;53.638;9.876;2023-04-27T10:35:07;101831.47;;;18.72;34.53
56400;BME280;42298;53.638;9.876;2023-04-27T10:37:40;101828.09;;;18.87;33.82
56400;BME280;42298;53.638;9.876;2023-04-27T10:40:09;101840.25;;;18.82;34.27
56400;BME280;42298;53.638;9.876;2023-04-27T10:42:35;101838.06;;;18.67;35.04
56400;BME280;42298;53.638;9.876;2023-04-27T10:45:01;101818.53;;;18.30;33.60
56400;BME280;42298;53.638;9.876;2023-04-27T10:47:43;101836.09;;;18.30;32.36
56400;BME280;42298;53.638;9.876;2023-04-27T10:50:11;101846.97;;;18.15;32.40
56400;BME280;42298;53.638;9.876;2023-04-27T10:52:43;101838.66;;;17.98;33.40
56400;BME280;42298;53.638;9.876;2023-04-27T10:55:18;101844.44;;;17.93;36.41
56400;BME280;42298;53.638;9.876;2023-04-27T10:57:48;101837.13;;;17.63;36.56
56400;BME280;42298;53.638;9.876;2023-04-27T11:00:41;101843.66;;;17.41;36.80
56400;BME280;42298;53.638;9.876;2023-04-27T11:03:13;101838.59;;;17.09;36.18
56400;BME280;42298;53.638;9.876;2023-04-27T11:05:40;101828.25;;;16.84;37.59
56400;BME280;42298;53.638;9.876;2023-04-27T11:08:08;101828.75;;;16.77;38.48
56400;BME280;42298;53.638;9.876;2023-04-27T11:10:37;101838.59;;;16.92;38.96
56400;BME280;42298;53.638;9.876;2023-04-27T11:13:11;101842.84;;;17.06;38.23
56400;BME280;42298;53.638;9.876;2023-04-27T11:15:49;101817.47;;;16.99;35.62
56400;BME280;42298;53.638;9.876;2023-04-27T11:18:17;101840.72;;;17.29;35.52
56400;BME280;42298;53.638;9.876;2023-04-27T11:20:43;101823.22;;;17.11;35.82
56400;BME280;42298;53.638;9.876;2023-04-27T11:23:09;101840.56;;;17.51;35.83
56400;BME280;42298;53.638;9.876;2023-04-27T11:25:36;101806.94;;;17.65;35.65
56400;BME280;42298;53.638;9.876;2023-04-27T11:28:01;101843.44;;;17.97;34.04
56400;BME280;42298;53.638;9.876;2023-04-27T11:30:27;101825.50;;;17.52;35.22
56400;BME280;42298;53.638;9.876;2023-04-27T11:32:53;101838.59;;;17.60;35.24
56400;BME280;42298;53.638;9.876;2023-04-27T11:35:19;101824.19;;;17.24;36.91
56400;BME280;42298;53.638;9.876;2023-04-27T11:37:55;101848.28;;;17.29;37.08
56400;BME280;42298;53.638;9.876;2023-04-27T11:40:22;101844.34;;;17.30;36.04
56400;BME280;42298;53.638;9.876;2023-04-27T11:42:56;101850.06;;;17.07;36.44
56400;BME280;42298;53.638;9.876;2023-04-27T11:45:24;101849.38;;;17.02;36.61
56400;BME280;42298;53.638;9.876;2023-04-27T11:47:52;101846.56;;;16.76;37.15
56400;BME280;42298;53.638;9.876;2023-04-27T11:50:17;101837.56;;;16.71;37.85
56400;BME280;42298;53.638;9.876;2023-04-27T11:52:47;101798.09;;;16.60;38.39
56400;BME280;42298;53.638;9.876;2023-04-27T11:55:12;101850.22;;;17.02;38.64
56400;BME280;42298;53.638;9.876;2023-04-27T11:57:40;101843.50;;;17.21;37.32
56400;BME280;42298;53.638;9.876;2023-04-27T12:00:06;101851.56;;;17.39;37.02
56400;BME280;42298;53.638;9.876;2023-04-27T12:02:39;101841.69;;;17.59;36.62
56400;BME280;42298;53.638;9.876;2023-04-27T12:05:04;101844.81;;;17.57;35.68
56400;BME280;42298;53.638;9.876;2023-04-27T12:07:31;101848.06;;;17.68;36.33
56400;BME280;42298;53.638;9.876;2023-04-27T12:09:57;101851.25;;;17.49;35.85
56400;BME280;42298;53.638;9.876;2023-04-27T12:12:22;101844.34;;;17.47;36.19
56400;BME280;42298;53.638;9.876;2023-04-27T12:14:48;101853.00;;;17.62;36.52
56400;BME280;42298;53.638;9.876;2023-04-27T12:17:14;101847.63;;;17.49;36.64
56400;BME280;42298;53.638;9.876;2023-04-27T12:19:40;101849.91;;;17.47;37.08
56400;BME280;42298;53.638;9.876;2023-04-27T12:22:05;101850.72;;;17.39;37.07
56400;BME280;42298;53.638;9.876;2023-04-27T12:24:31;101815.81;;;17.15;36.92
56400;BME280;42298;53.638;9.876;2023-04-27T12:26:57;101857.44;;;17.29;37.05
56400;BME280;42298;53.638;9.876;2023-04-27T12:29:23;101853.81;;;17.20;36.30
56400;BME280;42298;53.638;9.876;2023-04-27T12:31:49;101844.16;;;17.00;36.76
56400;BME280;42298;53.638;9.876;2023-04-27T12:34:15;101848.59;;;17.01;36.57
56400;BME280;42298;53.638;9.876;2023-04-27T12:36:40;101822.53;;;16.80;37.23
56400;BME280;42298;53.638;9.876;2023-04-27T12:39:17;101857.78;;;17.10;37.54
56400;BME280;42298;53.638;9.876;2023-04-27T12:41:45;101837.59;;;16.96;37.64
56400;BME280;42298;53.638;9.876;2023-04-27T12:44:11;101833.84;;;16.92;37.57
56400;BME280;42298;53.638;9.876;2023-04-27T12:46:37;101830.22;;;17.00;36.80
56400;BME280;42298;53.638;9.876;2023-04-27T12:49:03;101825.97;;;16.86;38.42
56400;BME280;42298;53.638;9.876;2023-04-27T12:51:32;101829.59;;;16.95;38.49
56400;BME280;42298;53.638;9.876;2023-04-27T12:54:04;101871.50;;;17.15;38.34
56400;BME280;42298;53.638;9.876;2023-04-27T12:56:30;101836.28;;;16.77;38.47
56400;BME280;42298;53.638;9.876;2023-04-27T12:58:56;101845.53;;;16.55;40.59
56400;BME280;42298;53.638;9.876;2023-04-27T13:01:22;101873.78;;;16.40;41.08